Time;durP1;ratioP1;P1;durP2;ratioP2;P2;SDS_P1;SDS_P2;PMS_P1;PMS_P2;Temp;Humidity;BMP_temperature;BMP_pressure;BME280_temperature;BME280_humidity;BME280_pressure;Samples;Min_cycle;Max_cycle;Signal;HPM_P1;HPM_P2
2022/12/13 00:01:12;;;;;;;;;;;;;;;;;;5086580;28;5091;-66
2022/12/13 00:03:37;;;;;;;;;;;;;;;;;;5095604;28;4990;-66
2022/12/13 00:06:06;;;;;;;;;;;;;;;;;;5085589;28;3716;-66
2022/12/13 00:08:31;;;;;;;;;;;;;;;;;;5052037;28;4690;-66
2022/12/13 00:11:03;;;;;;;;;;;;;;;;;;5061215;28;4634;-66
2022/12/13 00:13:29;;;;;;;;;;;;;;;;;;5061202;28;5032;-66
2022/12/13 00:15:55;;;;;;;;;;;;;;;;;;5054919;28;5235;-65
2022/12/13 00:18:20;;;;;;;;;;;;;;;;;;5056182;28;5061;-65
2022/12/13 00:20:45;;;;;;;;;;;;;;;;;;5057473;28;3799;-65
2022/12/13 00:23:10;;;;;;;;;;;;;;;;;;5053237;28;5146;-66
2022/12/13 00:25:36;;;;;;;;;;;;;;;;;;5051580;28;5035;-67
2022/12/13 00:28:01;;;;;;;;;;;;;;;;;;5056018;28;5105;-66
2022/12/13 00:30:30;;;;;;;;;;;;;;;;;;5064635;28;4992;-67
2022/12/13 00:32:55;;;;;;;;;;;;;;;;;;5048498;28;3312;-67
2022/12/13 00:35:20;;;;;;;;;;;;;;;;;;5060096;28;5109;-66
2022/12/13 00:37:46;;;;;;;;;;;;;;;;;;5060539;28;5000;-67
2022/12/13 00:40:11;;;;;;;;;;;;;;;;;;5060820;28;5081;-67
2022/12/13 00:42:36;;;;;;;;;;;;;;;;;;5062438;28;5644;-67
2022/12/13 00:45:01;;;;;;;;;;;;;;;;;;5057162;28;3221;-67
2022/12/13 00:47:27;;;;;;;;;;;;;;;;;;5057128;28;5290;-67
2022/12/13 00:49:52;;;;;;;;;;;;;;;;;;5054693;28;5064;-64
2022/12/13 00:52:17;;;;;;;;;;;;;;;;;;5062863;28;4520;-66
2022/12/13 00:54:42;;;;;;;;;;;;;;;;;;5055992;28;4999;-67
2022/12/13 00:57:08;;;;;;;;;;;;;;;;;;5068008;28;1084;-66
2022/12/13 00:59:33;;;;;;;;;;;;;;;;;;5062859;28;5006;-67
2022/12/13 01:01:58;;;;;;;;;;;;;;;;;;5059775;28;4424;-67
2022/12/13 01:04:23;;;;;;;;;;;;;;;;;;5051766;28;4553;-66
2022/12/13 01:06:50;;;;;;;;;;;;;;;;;;5063656;28;5056;-65
2022/12/13 01:09:29;;;;;;;;;;;;;;;;;;5080470;28;3364;-66
2022/12/13 01:11:58;;;;;;;;;;;;;;;;;;5084818;28;4637;-67
2022/12/13 01:14:24;;;;;;;;;;;;;;;;;;5047235;28;4989;-67
2022/12/13 01:16:49;;;;;;;;;;;;;;;;;;5080588;28;5373;-66
2022/12/13 01:19:14;;;;;;;;;;;;;;;;;;5076104;28;5097;-64
2022/12/13 01:21:39;;;;;;;;;;;;;;;;;;5081190;28;5247;-67
2022/12/13 01:24:05;;;;;;;;;;;;;;;;;;5076609;28;3326;-67
2022/12/13 01:26:30;;;;;;;;;;;;;;;;;;5085098;28;4544;-67
2022/12/13 01:28:56;;;;;;;;;;;;;;;;;;5076821;28;4892;-66
2022/12/13 01:31:21;;;;;;;;;;;;;;;;;;5071329;28;4809;-67
2022/12/13 01:33:46;;;;;;;;;;;;;;;;;;5080244;28;5139;-66
2022/12/13 01:36:13;;;;;;;;;;;;;;;;;;5079022;28;3278;-67
2022/12/13 01:38:38;;;;;;;;;;;;;;;;;;5076602;28;4795;-66
2022/12/13 01:41:04;;;;;;;;;;;;;;;;;;5075960;28;4646;-67
2022/12/13 01:43:48;;;;;;;;;;;;;;;;;;5077453;28;5120;-65
2022/12/13 01:46:14;;;;;;;;;;;;;;;;;;5055073;28;5499;-64
2022/12/13 01:48:46;;;;;;;;;;;;;;;;;;5074448;28;5142;-66
2022/12/13 01:51:11;;;;;;;;;;;;;;;;;;5072879;28;3292;-67
2022/12/13 01:53:37;;;;;;;;;;;;;;;;;;5062577;28;4824;-67
2022/12/13 01:56:03;;;;;;;;;;;;;;;;;;5057567;28;4586;-65
2022/12/13 01:58:29;;;;;;;;;;;;;;;;;;5086008;28;5155;-66
2022/12/13 02:00:54;;;;;;;;;;;;;;;;;;5058634;28;5418;-65
2022/12/13 02:03:19;;;;;;;;;;;;;;;;;;5077573;28;5118;-64
2022/12/13 02:05:51;;;;;;;;;;;;;;;;;;5086623;28;3375;-65
2022/12/13 02:08:16;;;;;;;;;;;;;;;;;;5082254;28;4463;-66
2022/12/13 02:10:42;;;;;;;;;;;;;;;;;;5067988;28;5074;-65
2022/12/13 02:13:07;;;;;;;;;;;;;;;;;;5082452;28;5063;-66
2022/12/13 02:15:40;;;;;;;;;;;;;;;;;;5086735;28;5288;-65
2022/12/13 02:18:14;;;;;;;;;;;;;;;;;;5067057;28;3432;-66
2022/12/13 02:20:55;;;;;;;;;;;;;;;;;;5051576;28;4624;-65
2022/12/13 02:23:39;;;;;;;;;;;;;;;;;;5084499;28;4983;-65
2022/12/13 02:26:04;;;;;;;;;;;;;;;;;;5069330;28;4668;-66
2022/12/13 02:28:38;;;;;;;;;;;;;;;;;;5086550;28;4961;-66
2022/12/13 02:31:07;;;;;;;;;;;;;;;;;;5087938;28;5476;-64
2022/12/13 02:33:32;;;;;;;;;;;;;;;;;;5061043;28;5113;-66
2022/12/13 02:36:00;;;;;;;;;;;;;;;;;;5091580;28;1140;-66
2022/12/13 02:38:25;;;;;;;;;;;;;;;;;;5068484;28;5150;-66
2022/12/13 02:40:59;;;;;;;;;;;;;;;;;;5086875;28;5176;-66
2022/12/13 02:43:25;;;;;;;;;;;;;;;;;;5065572;28;4952;-66
2022/12/13 02:45:51;;;;;;;;;;;;;;;;;;5063485;28;5096;-66
2022/12/13 02:48:18;;;;;;;;;;;;;;;;;;5061043;28;5008;-59
2022/12/13 02:50:43;;;;;;;;;;;;;;;;;;5065606;28;3321;-66
2022/12/13 02:53:08;;;;;;;;;;;;;;;;;;5063925;28;5282;-66
2022/12/13 02:55:36;;;;;;;;;;;;;;;;;;5063898;28;4964;-65
2022/12/13 02:58:01;;;;;;;;;;;;;;;;;;5062597;28;5026;-66
2022/12/13 03:00:30;;;;;;;;;;;;;;;;;;5080422;28;4506;-65
2022/12/13 03:03:17;;;;;;;;;;;;;;;;;;5062244;28;3529;-66
2022/12/13 03:08:38;;;;;;;;;;;;;;;;;;5080629;28;5016;-67
2022/12/13 03:11:07;;;;;;;;;;;;;;;;;;5063916;28;5325;-67
2022/12/13 03:13:36;;;;;;;;;;;;;;;;;;5063008;28;4681;-65
2022/12/13 03:16:05;;;;;;;;;;;;;;;;;;5060011;28;4890;-65
2022/12/13 03:18:30;;;;;;;;;;;;;;;;;;5081137;28;5358;-66
2022/12/13 03:20:56;;;;;;;;;;;;;;;;;;5064954;28;3513;-66
2022/12/13 03:23:22;;;;;;;;;;;;;;;;;;5084226;28;4895;-66
2022/12/13 03:25:51;;;;;;;;;;;;;;;;;;5078437;28;4981;-66
2022/12/13 03:28:16;;;;;;;;;;;;;;;;;;5051124;28;5571;-66
2022/12/13 03:30:41;;;;;;;;;;;;;;;;;;5064463;28;5222;-66
2022/12/13 03:33:06;;;;;;;;;;;;;;;;;;5084149;28;3323;-66
2022/12/13 03:35:32;;;;;;;;;;;;;;;;;;5080402;28;5163;-65
2022/12/13 03:37:58;;;;;;;;;;;;;;;;;;5081587;28;5118;-66
2022/12/13 03:40:23;;;;;;;;;;;;;;;;;;5059619;28;4989;-63
2022/12/13 03:42:48;;;;;;;;;;;;;;;;;;5082804;28;4942;-67
2022/12/13 03:45:14;;;;;;;;;;;;;;;;;;5079801;28;3465;-66
2022/12/13 03:47:39;;;;;;;;;;;;;;;;;;5075747;28;4409;-67
2022/12/13 03:50:04;;;;;;;;;;;;;;;;;;5080167;28;5085;-66
2022/12/13 03:52:30;;;;;;;;;;;;;;;;;;5076164;28;5156;-66
2022/12/13 03:54:55;;;;;;;;;;;;;;;;;;5076650;28;4992;-67
2022/12/13 03:57:20;;;;;;;;;;;;;;;;;;5074917;28;5062;-65
2022/12/13 03:59:46;;;;;;;;;;;;;;;;;;5073448;28;3628;-67
2022/12/13 04:02:11;;;;;;;;;;;;;;;;;;5078953;28;5086;-66
2022/12/13 04:04:36;;;;;;;;;;;;;;;;;;5068017;28;5061;-66
2022/12/13 04:07:01;;;;;;;;;;;;;;;;;;5080334;28;4709;-67
2022/12/13 04:09:27;;;;;;;;;;;;;;;;;;5064528;28;4987;-67
2022/12/13 04:14:36;;;;;;;;;;;;;;;;;;5074592;28;4723;-67
2022/12/13 04:17:01;;;;;;;;;;;;;;;;;;5082951;28;5131;-67
2022/12/13 04:19:26;;;;;;;;;;;;;;;;;;5082623;28;5196;-67
2022/12/13 04:21:53;;;;;;;;;;;;;;;;;;5076103;28;5054;-68
2022/12/13 04:24:18;;;;;;;;;;;;;;;;;;5082436;28;4660;-64
2022/12/13 04:26:43;;;;;;;;;;;;;;;;;;5079445;28;3562;-66
2022/12/13 04:29:08;;;;;;;;;;;;;;;;;;5080422;28;5067;-67
2022/12/13 04:31:34;;;;;;;;;;;;;;;;;;5078865;28;5088;-65
2022/12/13 04:33:59;;;;;;;;;;;;;;;;;;5074739;28;4697;-66
2022/12/13 04:36:24;;;;;;;;;;;;;;;;;;5074965;28;5386;-66
2022/12/13 04:38:50;;;;;;;;;;;;;;;;;;5081912;28;3359;-66
2022/12/13 04:41:15;;;;;;;;;;;;;;;;;;5060651;28;4501;-68
2022/12/13 04:43:41;;;;;;;;;;;;;;;;;;5060647;28;5197;-66
2022/12/13 04:46:06;;;;;;;;;;;;;;;;;;5078092;28;5040;-67
2022/12/13 04:48:32;;;;;;;;;;;;;;;;;;5073905;28;5318;-67
2022/12/13 04:50:58;;;;;;;;;;;;;;;;;;5083112;28;3597;-66
2022/12/13 04:53:23;;;;;;;;;;;;;;;;;;5077894;28;4943;-67
2022/12/13 04:55:48;;;;;;;;;;;;;;;;;;5069711;28;4930;-66
2022/12/13 04:58:14;;;;;;;;;;;;;;;;;;5074213;28;4896;-66
2022/12/13 05:00:39;;;;;;;;;;;;;;;;;;5059692;28;5166;-66
2022/12/13 05:03:05;;;;;;;;;;;;;;;;;;5086395;28;3006;-66
2022/12/13 05:05:30;;;;;;;;;;;;;;;;;;5081330;28;4805;-66
2022/12/13 05:07:55;;;;;;;;;;;;;;;;;;5071423;28;5090;-66
2022/12/13 05:10:21;;;;;;;;;;;;;;;;;;5071312;28;5160;-67
2022/12/13 05:12:46;;;;;;;;;;;;;;;;;;5074398;28;4510;-65
2022/12/13 05:15:11;;;;;;;;;;;;;;;;;;5081644;28;3171;-66
2022/12/13 05:17:36;;;;;;;;;;;;;;;;;;5083529;28;4671;-67
2022/12/13 05:20:02;;;;;;;;;;;;;;;;;;5077355;28;4996;-66
2022/12/13 05:22:27;;;;;;;;;;;;;;;;;;5082345;28;4605;-65
2022/12/13 05:24:52;;;;;;;;;;;;;;;;;;5083199;28;5076;-65
2022/12/13 05:27:18;;;;;;;;;;;;;;;;;;5086510;28;5112;-65
2022/12/13 05:29:43;;;;;;;;;;;;;;;;;;5082276;28;3172;-65
2022/12/13 05:32:08;;;;;;;;;;;;;;;;;;5078896;28;5104;-65
2022/12/13 05:34:34;;;;;;;;;;;;;;;;;;5084405;28;4593;-65
2022/12/13 05:36:59;;;;;;;;;;;;;;;;;;5085428;28;5070;-65
2022/12/13 05:39:24;;;;;;;;;;;;;;;;;;5085512;28;4921;-65
2022/12/13 05:41:49;;;;;;;;;;;;;;;;;;5076373;28;3403;-64
2022/12/13 05:44:15;;;;;;;;;;;;;;;;;;5087157;28;5343;-65
2022/12/13 05:46:40;;;;;;;;;;;;;;;;;;5078680;28;5048;-65
2022/12/13 05:49:05;;;;;;;;;;;;;;;;;;5084863;28;5086;-65
2022/12/13 05:51:30;;;;;;;;;;;;;;;;;;5083998;28;4868;-65
2022/12/13 05:53:56;;;;;;;;;;;;;;;;;;5089998;28;4417;-64
2022/12/13 05:56:21;;;;;;;;;;;;;;;;;;5086378;28;4636;-65
2022/12/13 05:58:46;;;;;;;;;;;;;;;;;;5083273;28;4473;-65
2022/12/13 06:01:12;;;;;;;;;;;;;;;;;;5086380;28;5041;-65
2022/12/13 06:03:37;;;;;;;;;;;;;;;;;;5084204;28;5452;-63
2022/12/13 06:06:03;;;;;;;;;;;;;;;;;;5088149;28;3305;-65
2022/12/13 06:08:29;;;;;;;;;;;;;;;;;;5084739;28;5421;-65
2022/12/13 06:10:54;;;;;;;;;;;;;;;;;;5084490;28;5190;-66
2022/12/13 06:13:20;;;;;;;;;;;;;;;;;;5068680;28;5199;-60
2022/12/13 06:15:45;;;;;;;;;;;;;;;;;;5072762;28;5753;-63
2022/12/13 06:18:10;;;;;;;;;;;;;;;;;;5073844;28;3522;-60
2022/12/13 06:20:36;;;;;;;;;;;;;;;;;;5053989;28;4937;-66
2022/12/13 06:23:01;;;;;;;;;;;;;;;;;;5070745;28;5033;-73
2022/12/13 06:25:26;;;;;;;;;;;;;;;;;;5076778;28;4723;-74
2022/12/13 06:27:52;;;;;;;;;;;;;;;;;;5044494;28;4983;-72
2022/12/13 06:30:17;;;;;;;;;;;;;;;;;;5086436;28;5210;-69
2022/12/13 06:32:42;;;;;;;;;;;;;;;;;;5082626;28;3264;-67
2022/12/13 06:35:08;;;;;;;;;;;;;;;;;;5067853;28;5046;-71
2022/12/13 06:37:33;;;;;;;;;;;;;;;;;;5077229;28;5024;-64
2022/12/13 06:39:59;;;;;;;;;;;;;;;;;;5079639;28;5031;-72
2022/12/13 06:42:24;;;;;;;;;;;;;;;;;;5087428;28;4595;-69
2022/12/13 06:44:51;;;;;;;;;;;;;;;;;;5074904;28;3532;-61
2022/12/13 06:47:16;;;;;;;;;;;;;;;;;;5083880;28;4585;-72
2022/12/13 06:49:42;;;;;;;;;;;;;;;;;;5062508;28;5417;-72
2022/12/13 06:52:08;;;;;;;;;;;;;;;;;;5053558;28;4927;-71
2022/12/13 06:54:33;;;;;;;;;;;;;;;;;;5082540;28;5099;-72
2022/12/13 06:56:58;;;;;;;;;;;;;;;;;;5077065;28;3328;-66
2022/12/13 06:59:23;;;;;;;;;;;;;;;;;;5078673;28;4659;-71
2022/12/13 07:01:49;;;;;;;;;;;;;;;;;;5086309;28;4612;-72
2022/12/13 07:04:14;;;;;;;;;;;;;;;;;;5085588;28;5004;-67
2022/12/13 07:06:39;;;;;;;;;;;;;;;;;;5086629;28;5221;-71
2022/12/13 07:09:04;;;;;;;;;;;;;;;;;;5085892;28;3274;-73
2022/12/13 07:11:30;;;;;;;;;;;;;;;;;;5087550;28;4415;-73
2022/12/13 07:13:55;;;;;;;;;;;;;;;;;;5082184;28;5093;-68
2022/12/13 07:16:21;;;;;;;;;;;;;;;;;;5084637;28;4707;-65
2022/12/13 07:18:46;;;;;;;;;;;;;;;;;;5067219;28;4865;-63
2022/12/13 07:21:12;;;;;;;;;;;;;;;;;;5085991;28;3145;-64
2022/12/13 07:23:37;;;;;;;;;;;;;;;;;;5080452;28;4810;-67
2022/12/13 07:26:03;;;;;;;;;;;;;;;;;;5083284;28;4593;-66
2022/12/13 07:28:30;;;;;;;;;;;;;;;;;;5084397;28;4908;-66
2022/12/13 07:30:58;;;;;;;;;;;;;;;;;;5081989;28;5217;-66
2022/12/13 07:36:05;;;;;;;;;;;;;;;;;;5630249;22;3160;-57
2022/12/13 07:38:31;;;;;;;;;;;;;;;;;;5012538;28;5023;-57
2022/12/13 07:40:56;;;;;;;;;;;;;;;;;;5000319;28;4607;-57
2022/12/13 07:43:22;;;;;;;;;;;;;;;;;;5025889;28;5170;-58
2022/12/13 07:45:47;;;;;;;;;;;;;;;;;;5030982;28;5082;-59
2022/12/13 07:48:12;;;;;;;;;;;;;;;;;;5031394;28;3425;-58
2022/12/13 07:50:38;;;;;;;;;;;;;;;;;;5040755;28;5067;-58
2022/12/13 07:53:04;;;;;;;;;;;;;;;;;;5030207;28;4851;-59
2022/12/13 07:55:30;;;;;;;;;;;;;;;;;;5023629;28;5211;-58
2022/12/13 07:58:01;;;;;;;;;;;;;;;;;;5026764;28;5633;-55
2022/12/13 08:00:26;;;;;;;;;;;;;;;;;;5021698;28;5256;-56
2022/12/13 08:02:51;;;;;;;;;;;;;;;;;;5025604;28;3436;-56
2022/12/13 08:05:17;;;;;;;;;;;;;;;;;;5035805;28;5081;-55
2022/12/13 08:07:42;;;;;;;;;;;;;;;;;;5027041;28;5002;-55
2022/12/13 08:10:07;;;;;;;;;;;;;;;;;;5026201;28;5008;-55
2022/12/13 08:12:33;;;;;;;;;;;;;;;;;;5028856;28;5209;-55
2022/12/13 08:14:58;;;;;;;;;;;;;;;;;;5024989;28;1390;-56
2022/12/13 08:17:23;;;;;;;;;;;;;;;;;;5028531;28;4867;-56
2022/12/13 08:19:48;;;;;;;;;;;;;;;;;;5026952;28;4943;-55
2022/12/13 08:22:14;;;;;;;;;;;;;;;;;;5018692;28;5078;-54
2022/12/13 08:24:39;;;;;;;;;;;;;;;;;;5036840;28;4897;-56
2022/12/13 08:27:05;;;;;;;;;;;;;;;;;;5031007;28;3612;-56
2022/12/13 08:29:30;;;;;;;;;;;;;;;;;;5025643;28;4628;-54
2022/12/13 08:31:56;;;;;;;;;;;;;;;;;;5018414;28;4555;-56
2022/12/13 08:34:21;;;;;;;;;;;;;;;;;;5024549;28;5600;-55
2022/12/13 08:36:46;;;;;;;;;;;;;;;;;;5018525;28;5229;-54
2022/12/13 08:39:11;;;;;;;;;;;;;;;;;;5048241;28;1358;-52
2022/12/13 08:41:37;;;;;;;;;;;;;;;;;;5044622;28;5056;-55
2022/12/13 08:44:02;;;;;;;;;;;;;;;;;;5044571;28;4475;-54
2022/12/13 08:46:27;;;;;;;;;;;;;;;;;;5043772;28;4749;-54
2022/12/13 08:48:53;;;;;;;;;;;;;;;;;;5046827;28;4994;-55
2022/12/13 08:51:22;;;;;;;;;;;;;;;;;;5044324;28;5162;-55
2022/12/13 08:53:47;;;;;;;;;;;;;;;;;;5040399;28;4477;-57
2022/12/13 08:56:14;;;;;;;;;;;;;;;;;;5041172;28;5133;-55
2022/12/13 08:58:39;;;;;;;;;;;;;;;;;;5043049;28;4444;-55
2022/12/13 09:01:05;;;;;;;;;;;;;;;;;;5041992;28;5111;-55
2022/12/13 09:03:31;;;;;;;;;;;;;;;;;;5040413;28;4902;-55
2022/12/13 09:05:56;;;;;;;;;;;;;;;;;;5041735;28;3629;-57
2022/12/13 09:08:21;;;;;;;;;;;;;;;;;;5039775;28;5084;-55
2022/12/13 09:10:54;;;;;;;;;;;;;;;;;;5042471;28;5004;-55
2022/12/13 09:13:20;;;;;;;;;;;;;;;;;;5039100;28;5094;-56
2022/12/13 09:15:45;;;;;;;;;;;;;;;;;;5045657;28;5312;-54
2022/12/13 09:18:10;;;;;;;;;;;;;;;;;;5044507;28;3276;-54
2022/12/13 09:20:36;;;;;;;;;;;;;;;;;;5045066;28;4920;-55
2022/12/13 09:23:01;;;;;;;;;;;;;;;;;;5040480;28;5019;-55
2022/12/13 09:25:27;;;;;;;;;;;;;;;;;;5042500;28;5176;-56
2022/12/13 09:27:52;;;;;;;;;;;;;;;;;;5045721;28;5018;-56
2022/12/13 09:30:18;;;;;;;;;;;;;;;;;;5047144;28;5041;-54
2022/12/13 09:32:48;;;;;;;;;;;;;;;;;;5044910;28;1242;-53
2022/12/13 09:35:13;;;;;;;;;;;;;;;;;;5045039;28;4730;-56
2022/12/13 09:37:39;;;;;;;;;;;;;;;;;;5041203;28;5022;-53
2022/12/13 09:40:04;;;;;;;;;;;;;;;;;;5044263;28;5241;-54
2022/12/13 09:42:29;;;;;;;;;;;;;;;;;;5040700;28;4675;-55
2022/12/13 09:44:59;;;;;;;;;;;;;;;;;;5041609;28;3454;-56
2022/12/13 09:47:27;;;;;;;;;;;;;;;;;;5045585;28;4818;-55
2022/12/13 09:49:52;;;;;;;;;;;;;;;;;;5045135;28;4779;-56
2022/12/13 09:52:18;;;;;;;;;;;;;;;;;;5039800;28;5405;-55
2022/12/13 09:54:43;;;;;;;;;;;;;;;;;;5043984;28;4740;-55
2022/12/13 09:57:18;;;;;;;;;;;;;;;;;;5045315;28;3190;-55
2022/12/13 09:59:44;;;;;;;;;;;;;;;;;;5038646;28;4592;-56
2022/12/13 10:02:16;;;;;;;;;;;;;;;;;;5042696;28;5043;-56
2022/12/13 10:04:42;;;;;;;;;;;;;;;;;;5042131;28;5178;-56
2022/12/13 10:07:20;;;;;;;;;;;;;;;;;;5042264;28;4621;-56
2022/12/13 10:09:45;;;;;;;;;;;;;;;;;;5035901;28;4617;-56
2022/12/13 10:12:12;;;;;;;;;;;;;;;;;;5042239;28;3532;-56
2022/12/13 10:14:39;;;;;;;;;;;;;;;;;;5041274;28;4547;-56
2022/12/13 10:17:04;;;;;;;;;;;;;;;;;;5039222;28;4641;-57
2022/12/13 10:19:39;;;;;;;;;;;;;;;;;;5038914;28;5020;-55
2022/12/13 10:22:05;;;;;;;;;;;;;;;;;;5027793;28;5178;-56
2022/12/13 10:24:49;;;;;;;;;;;;;;;;;;5043103;28;4551;-57
2022/12/13 10:27:35;;;;;;;;;;;;;;;;;;5045281;28;1194;-56
2022/12/13 10:30:04;;;;;;;;;;;;;;;;;;5043002;28;4519;-57
2022/12/13 10:32:32;;;;;;;;;;;;;;;;;;5045500;28;4609;-57
2022/12/13 10:34:57;;;;;;;;;;;;;;;;;;5043203;28;5097;-56
2022/12/13 10:37:23;;;;;;;;;;;;;;;;;;5045900;28;4746;-57
2022/12/13 10:39:48;;;;;;;;;;;;;;;;;;5047124;28;4645;-57
2022/12/13 10:42:17;;;;;;;;;;;;;;;;;;5040167;28;3543;-56
2022/12/13 10:44:42;;;;;;;;;;;;;;;;;;5047066;28;4629;-64
2022/12/13 10:47:23;;;;;;;;;;;;;;;;;;5047567;28;5122;-58
2022/12/13 10:49:49;;;;;;;;;;;;;;;;;;5046378;28;4443;-58
2022/12/13 10:52:21;;;;;;;;;;;;;;;;;;5044314;28;4709;-57
2022/12/13 10:54:46;;;;;;;;;;;;;;;;;;5045072;28;5056;-58
2022/12/13 10:57:11;;;;;;;;;;;;;;;;;;5044785;28;3312;-59
2022/12/13 10:59:37;;;;;;;;;;;;;;;;;;5044421;28;4905;-60
2022/12/13 11:02:21;;;;;;;;;;;;;;;;;;5041883;28;5322;-62
2022/12/13 11:04:47;;;;;;;;;;;;;;;;;;5039378;28;5208;-58
2022/12/13 11:07:28;;;;;;;;;;;;;;;;;;5040051;28;5345;-58
2022/12/13 11:09:53;;;;;;;;;;;;;;;;;;5042750;28;4752;-56
2022/12/13 11:12:19;;;;;;;;;;;;;;;;;;5043304;28;5796;-57
2022/12/13 11:15:05;;;;;;;;;;;;;;;;;;5043924;28;1385;-57
2022/12/13 11:17:30;;;;;;;;;;;;;;;;;;5045253;28;5039;-58
2022/12/13 11:19:56;;;;;;;;;;;;;;;;;;5044318;28;5069;-58
2022/12/13 11:22:28;;;;;;;;;;;;;;;;;;5043872;28;5058;-57
2022/12/13 11:25:00;;;;;;;;;;;;;;;;;;5042222;28;5246;-57
2022/12/13 11:27:44;;;;;;;;;;;;;;;;;;5041318;28;4767;-58
2022/12/13 11:30:16;;;;;;;;;;;;;;;;;;5049997;28;2454;-58
2022/12/13 11:32:53;;;;;;;;;;;;;;;;;;5045240;28;4910;-58
2022/12/13 11:35:27;;;;;;;;;;;;;;;;;;5045017;28;5062;-58
2022/12/13 11:38:11;;;;;;;;;;;;;;;;;;5040322;28;5097;-57
2022/12/13 11:40:47;;;;;;;;;;;;;;;;;;5040508;28;5017;-55
2022/12/13 11:43:18;;;;;;;;;;;;;;;;;;5041455;28;5082;-55
2022/12/13 11:45:45;;;;;;;;;;;;;;;;;;5043279;28;5023;-54
2022/12/13 11:48:18;;;;;;;;;;;;;;;;;;5045043;28;1113;-56
2022/12/13 11:50:45;;;;;;;;;;;;;;;;;;5047006;28;4811;-56
2022/12/13 11:53:29;;;;;;;;;;;;;;;;;;5042776;28;4978;-57
2022/12/13 11:56:05;;;;;;;;;;;;;;;;;;5045555;28;4459;-55
2022/12/13 11:58:39;;;;;;;;;;;;;;;;;;5048097;28;4985;-55
2022/12/13 12:01:15;;;;;;;;;;;;;;;;;;5045789;28;4469;-53
2022/12/13 12:03:44;;;;;;;;;;;;;;;;;;5045451;28;5109;-55
2022/12/13 12:06:15;;;;;;;;;;;;;;;;;;5041984;28;1149;-55
2022/12/13 12:08:45;;;;;;;;;;;;;;;;;;5045026;28;5287;-55
2022/12/13 12:11:10;;;;;;;;;;;;;;;;;;5047879;28;5245;-57
2022/12/13 12:13:38;;;;;;;;;;;;;;;;;;5039069;28;5082;-57
2022/12/13 12:16:07;;;;;;;;;;;;;;;;;;5045067;28;5724;-56
2022/12/13 12:18:32;;;;;;;;;;;;;;;;;;5046942;28;5122;-57
2022/12/13 12:21:00;;;;;;;;;;;;;;;;;;5047092;28;1097;-55
2022/12/13 12:23:34;;;;;;;;;;;;;;;;;;5045379;28;4447;-57
2022/12/13 12:26:05;;;;;;;;;;;;;;;;;;5046549;28;5066;-56
2022/12/13 12:28:46;;;;;;;;;;;;;;;;;;5044354;28;5061;-59
2022/12/13 12:31:14;;;;;;;;;;;;;;;;;;5045467;28;5412;-57
2022/12/13 12:33:56;;;;;;;;;;;;;;;;;;5039144;28;5026;-55
2022/12/13 12:36:39;;;;;;;;;;;;;;;;;;5040599;28;5113;-59
2022/12/13 12:39:14;;;;;;;;;;;;;;;;;;5043409;28;3321;-56
2022/12/13 12:41:43;;;;;;;;;;;;;;;;;;5045484;28;4477;-55
2022/12/13 12:44:08;;;;;;;;;;;;;;;;;;5043116;28;5231;-57
2022/12/13 12:46:49;;;;;;;;;;;;;;;;;;5045223;28;5008;-58
2022/12/13 12:49:21;;;;;;;;;;;;;;;;;;5044786;28;5583;-58
2022/12/13 12:51:58;;;;;;;;;;;;;;;;;;5040333;28;5081;-57
2022/12/13 12:54:24;;;;;;;;;;;;;;;;;;5045116;28;5047;-58
2022/12/13 12:56:52;;;;;;;;;;;;;;;;;;5046832;28;1254;-57
2022/12/13 12:59:21;;;;;;;;;;;;;;;;;;5043744;28;4581;-57
2022/12/13 13:01:55;;;;;;;;;;;;;;;;;;5042245;28;5603;-57
2022/12/13 13:04:21;;;;;;;;;;;;;;;;;;5044537;28;4641;-57
2022/12/13 13:06:48;;;;;;;;;;;;;;;;;;5047657;28;5103;-56
2022/12/13 13:09:15;;;;;;;;;;;;;;;;;;5043742;28;3304;-57
2022/12/13 13:11:41;;;;;;;;;;;;;;;;;;5044788;28;4782;-55
2022/12/13 13:14:09;;;;;;;;;;;;;;;;;;5046729;28;5075;-60
2022/12/13 13:16:38;;;;;;;;;;;;;;;;;;5044752;28;5090;-57
2022/12/13 13:19:09;;;;;;;;;;;;;;;;;;5042944;28;4635;-57
2022/12/13 13:21:42;;;;;;;;;;;;;;;;;;5033191;28;4584;-57
2022/12/13 13:24:07;;;;;;;;;;;;;;;;;;5041586;28;3277;-57
2022/12/13 13:26:36;;;;;;;;;;;;;;;;;;5044197;28;4955;-54
2022/12/13 13:29:20;;;;;;;;;;;;;;;;;;5045414;28;4858;-55
2022/12/13 13:31:55;;;;;;;;;;;;;;;;;;5046655;28;4944;-57
2022/12/13 13:34:24;;;;;;;;;;;;;;;;;;5044251;28;4693;-58
2022/12/13 13:36:51;;;;;;;;;;;;;;;;;;5044128;28;5109;-58
2022/12/13 13:39:32;;;;;;;;;;;;;;;;;;5048875;28;2068;-57
2022/12/13 13:42:00;;;;;;;;;;;;;;;;;;5044463;28;5177;-58
2022/12/13 13:44:31;;;;;;;;;;;;;;;;;;5044059;28;4995;-56
2022/12/13 13:47:15;;;;;;;;;;;;;;;;;;5040975;28;4496;-57
2022/12/13 13:50:01;;;;;;;;;;;;;;;;;;5046035;28;5469;-59
2022/12/13 13:52:27;;;;;;;;;;;;;;;;;;5040835;28;4686;-56
2022/12/13 13:54:58;;;;;;;;;;;;;;;;;;5048328;28;4994;-57
2022/12/13 13:57:30;;;;;;;;;;;;;;;;;;5051201;28;5108;-57
2022/12/13 14:00:13;;;;;;;;;;;;;;;;;;5044058;28;3687;-57
2022/12/13 14:02:54;;;;;;;;;;;;;;;;;;5046947;28;4875;-54
2022/12/13 14:05:19;;;;;;;;;;;;;;;;;;5048707;28;4997;-58
2022/12/13 14:07:57;;;;;;;;;;;;;;;;;;5050920;28;4786;-57
2022/12/13 14:10:28;;;;;;;;;;;;;;;;;;5045558;28;5167;-57
2022/12/13 14:12:54;;;;;;;;;;;;;;;;;;5045104;28;4678;-57
2022/12/13 14:15:37;;;;;;;;;;;;;;;;;;5046246;28;4456;-55
2022/12/13 14:18:09;;;;;;;;;;;;;;;;;;5044989;28;3220;-56
2022/12/13 14:20:52;;;;;;;;;;;;;;;;;;5045289;28;4838;-55
2022/12/13 14:23:21;;;;;;;;;;;;;;;;;;5050715;28;4653;-56
2022/12/13 14:25:48;;;;;;;;;;;;;;;;;;5048412;28;5041;-56
2022/12/13 14:28:29;;;;;;;;;;;;;;;;;;5044314;28;5103;-56
2022/12/13 14:30:54;;;;;;;;;;;;;;;;;;5043925;28;4503;-56
2022/12/13 14:33:20;;;;;;;;;;;;;;;;;;5047612;28;4508;-56
2022/12/13 14:35:53;;;;;;;;;;;;;;;;;;5048196;28;3671;-56
2022/12/13 14:38:22;;;;;;;;;;;;;;;;;;5047721;28;4875;-55
2022/12/13 14:40:55;;;;;;;;;;;;;;;;;;5050446;28;5347;-57
2022/12/13 14:43:21;;;;;;;;;;;;;;;;;;5046847;28;5021;-56
2022/12/13 14:45:47;;;;;;;;;;;;;;;;;;5045587;28;5149;-57
2022/12/13 14:48:13;;;;;;;;;;;;;;;;;;5046066;28;1350;-57
2022/12/13 14:50:38;;;;;;;;;;;;;;;;;;5050218;28;4955;-58
2022/12/13 14:53:03;;;;;;;;;;;;;;;;;;5043115;28;4674;-56
2022/12/13 14:55:30;;;;;;;;;;;;;;;;;;5046483;28;4581;-55
2022/12/13 14:57:56;;;;;;;;;;;;;;;;;;5048157;28;5052;-56
2022/12/13 15:00:22;;;;;;;;;;;;;;;;;;5048309;28;4999;-57
2022/12/13 15:02:51;;;;;;;;;;;;;;;;;;5046511;28;3254;-57
2022/12/13 15:05:22;;;;;;;;;;;;;;;;;;5045918;28;5056;-56
2022/12/13 15:07:48;;;;;;;;;;;;;;;;;;5047465;28;5192;-55
2022/12/13 15:10:14;;;;;;;;;;;;;;;;;;5048084;28;4896;-54
2022/12/13 15:12:40;;;;;;;;;;;;;;;;;;5045940;28;4806;-54
2022/12/13 15:15:06;;;;;;;;;;;;;;;;;;5044872;28;2009;-56
2022/12/13 15:17:38;;;;;;;;;;;;;;;;;;5049587;28;5021;-56
2022/12/13 15:20:19;;;;;;;;;;;;;;;;;;5044836;28;4968;-55
2022/12/13 15:22:45;;;;;;;;;;;;;;;;;;5042892;28;4879;-56
2022/12/13 15:25:13;;;;;;;;;;;;;;;;;;5047526;28;5086;-55
2022/12/13 15:27:38;;;;;;;;;;;;;;;;;;5047464;28;4997;-55
2022/12/13 15:30:04;;;;;;;;;;;;;;;;;;5047865;28;1985;-56
2022/12/13 15:32:29;;;;;;;;;;;;;;;;;;5045516;28;5186;-56
2022/12/13 15:34:54;;;;;;;;;;;;;;;;;;5045594;28;5202;-56
2022/12/13 15:37:25;;;;;;;;;;;;;;;;;;5049078;28;4953;-55
2022/12/13 15:39:50;;;;;;;;;;;;;;;;;;5041392;28;5083;-55
2022/12/13 15:42:20;;;;;;;;;;;;;;;;;;5056431;28;1676;-56
2022/12/13 15:44:47;;;;;;;;;;;;;;;;;;5055041;28;4998;-56
2022/12/13 15:47:13;;;;;;;;;;;;;;;;;;5032276;28;4638;-56
2022/12/13 15:49:51;;;;;;;;;;;;;;;;;;5034916;28;4731;-56
2022/12/13 15:52:18;;;;;;;;;;;;;;;;;;5057536;28;4860;-58
2022/12/13 15:55:15;;;;;;;;;;;;;;;;;;5052589;28;5043;-59
2022/12/13 15:57:53;;;;;;;;;;;;;;;;;;5010690;28;5050;-57
2022/12/13 16:00:22;;;;;;;;;;;;;;;;;;5049930;28;5039;-58
2022/12/13 16:02:59;;;;;;;;;;;;;;;;;;5059893;28;1268;-57
2022/12/13 16:05:29;;;;;;;;;;;;;;;;;;5037192;28;5076;-58
2022/12/13 16:07:55;;;;;;;;;;;;;;;;;;5056621;28;5285;-58
2022/12/13 16:10:20;;;;;;;;;;;;;;;;;;5020721;28;4915;-57
2022/12/13 16:12:46;;;;;;;;;;;;;;;;;;5052259;28;4874;-57
2022/12/13 16:15:17;;;;;;;;;;;;;;;;;;5054019;28;2356;-57
2022/12/13 16:17:43;;;;;;;;;;;;;;;;;;5052537;28;4544;-56
2022/12/13 16:20:16;;;;;;;;;;;;;;;;;;5056499;28;4813;-56
2022/12/13 16:22:41;;;;;;;;;;;;;;;;;;5051809;28;4865;-57
2022/12/13 16:25:08;;;;;;;;;;;;;;;;;;5032101;28;5516;-57
2022/12/13 16:27:36;;;;;;;;;;;;;;;;;;5034550;28;5234;-56
2022/12/13 16:30:07;;;;;;;;;;;;;;;;;;5054702;28;1969;-57
2022/12/13 16:32:32;;;;;;;;;;;;;;;;;;5033746;28;5116;-56
2022/12/13 16:34:58;;;;;;;;;;;;;;;;;;5049006;28;4637;-56
2022/12/13 16:37:26;;;;;;;;;;;;;;;;;;5055018;28;5098;-58
2022/12/13 16:39:51;;;;;;;;;;;;;;;;;;5056613;28;5132;-58
2022/12/13 16:42:17;;;;;;;;;;;;;;;;;;5040882;28;1245;-56
2022/12/13 16:44:42;;;;;;;;;;;;;;;;;;5049595;28;4249;-55
2022/12/13 16:47:08;;;;;;;;;;;;;;;;;;5053010;28;5131;-57
2022/12/13 16:49:33;;;;;;;;;;;;;;;;;;5056102;28;5071;-56
2022/12/13 16:51:58;;;;;;;;;;;;;;;;;;5051287;28;4767;-54
2022/12/13 16:54:24;;;;;;;;;;;;;;;;;;5051477;28;5008;-56
2022/12/13 16:56:49;;;;;;;;;;;;;;;;;;5053569;28;3785;-56
2022/12/13 16:59:15;;;;;;;;;;;;;;;;;;5056234;28;4950;-57
2022/12/13 17:01:41;;;;;;;;;;;;;;;;;;5052719;28;4418;-56
2022/12/13 17:04:08;;;;;;;;;;;;;;;;;;5057160;28;5002;-55
2022/12/13 17:06:34;;;;;;;;;;;;;;;;;;5032520;28;5073;-56
2022/12/13 17:08:59;;;;;;;;;;;;;;;;;;5052594;28;1059;-56
2022/12/13 17:11:24;;;;;;;;;;;;;;;;;;5048423;28;4497;-58
2022/12/13 17:13:50;;;;;;;;;;;;;;;;;;5038754;28;4880;-57
2022/12/13 17:16:15;;;;;;;;;;;;;;;;;;5051814;28;4931;-56